This is the latest recevied weather packets stored in our database for station/object Aldingen. If no packets are shown the sender has not sent any weather packets the latest 1 day(s).
| Time | Temp. | Humidity | Pressure | Rain* | Wind** | Luminosity | Snow |
|---|---|---|---|---|---|---|---|
| 1777977131 | 13.33° C | 83% | 1007.4 hPa | 0.76 mm | 1.34 m/s, 267° | - | - |
| 1777975332 | 13.89° C | 80% | 1007.4 hPa | 0.25 mm | 1.34 m/s, 216° | - | - |
| 1777973532 | 15° C | 70% | 1007.3 hPa | 0 mm | 1.79 m/s, 334° | - | - |
| 1777971732 | 15° C | 68% | 1007.2 hPa | 0 mm | 1.34 m/s, 300° | - | - |
| 1777969931 | 15° C | 68% | 1007.2 hPa | 0 mm | 0 m/s | - | - |
| 1777968130 | 14.44° C | 74% | 1007.3 hPa | 0 mm | 0.89 m/s, 69° | - | - |
| 1777966330 | 13.33° C | 80% | 1007.7 hPa | 0 mm | 1.79 m/s, 54° | - | - |
| 1777964531 | 12.22° C | 81% | 1007.9 hPa | 0 mm | 0 m/s | - | - |
| 1777962731 | 12.22° C | 82% | 1008 hPa | 0 mm | 0 m/s | - | - |
| 1777960932 | 11.67° C | 83% | 1008.1 hPa | 0 mm | 0 m/s | - | - |
| 1777959131 | 10° C | 86% | 1008.2 hPa | 0 mm | 0 m/s | - | - |
| 1777957331 | 9.44° C | 88% | 1008.4 hPa | 0 mm | 0 m/s | - | - |
| 1777955531 | 8.33° C | 90% | 1008.5 hPa | 0 mm | 0 m/s | - | - |
| 1777953730 | 8.33° C | 90% | 1008.7 hPa | 0 mm | 0 m/s | - | - |
| 1777951931 | 8.33° C | 90% | 1008.8 hPa | 0 mm | 0 m/s | - | - |
| 1777950133 | 8.89° C | 89% | 1008.8 hPa | 0 mm | 0 m/s | - | - |
| 1777948331 | 8.89° C | 89% | 1009 hPa | 0 mm | 0 m/s | - | - |
| 1777946531 | 8.89° C | 88% | 1009.4 hPa | 0 mm | 0 m/s | - | - |
| 1777944731 | 10° C | 87% | 1009.6 hPa | 0 mm | 0 m/s | - | - |
| 1777942931 | 10.56° C | 85% | 1010 hPa | 0 mm | 0 m/s | - | - |
| 1777941128 | 10.56° C | 85% | 1010.5 hPa | 0 mm | 0 m/s | - | - |
| 1777939330 | 10.56° C | 85% | 1010.7 hPa | 0 mm | 0 m/s | - | - |
| 1777937529 | 11.11° C | 84% | 1010.8 hPa | 0 mm | 0 m/s | - | - |
* Rain since midnight (hover to see other rain measurements)
** Current wind speed in m/s (hover to see current wind gust speed)